Dun Laoghaire, Ireland
Current Conditions -  °F | °C
As of 5:30 AM on Tuesday 27 Jan 2015 (Local Time) from EIDW Reporting Station
Broken Clouds Broken Clouds  
Wind Chill: 34°   Ceiling: 15000
Heat Index: 41°   Visibility: 6mi
Dew Point: 39°   Wind: 13mph
Humidity: 93%   Direction: 230°SW
Pressure: 30.36"   Gusts: NA
Location:  53.29°N, 6.13°W
Report Text: EIDW 270530Z 23011KT 9999 FEW022 BKN150 05/04 Q1028 NOSIG
Loading
Personal Weather Stations






























Interactive Weather Map New forecast layout! Learn more

10-Day Weather Forecast

Advertisements
Track Severe Weather on mobile